Sea Success — VRS4325 — position and weather

sailwx.info

Track history (hours):
 
Tides and Currents Weather Stations Pressure Air Temp Water Temp Dewpoint Dewpoint Depression Visibility Wind Speed Wind Dir Waves Ship Positions

Sea Success

Last reported at 2014-Sep-20 01:31 UTC. Time now 2014-Sep-20 01:56 UTC.
Position N 22°18' E 114°09'.

Length 27 m.

Type: High speed craft. MMSI: 477995071.

Date/timePositionNaut miles runAvg speedWind from/ knotsBaromVisibWave heightAir tempDewpointWater temp
2014-Sep-20 01:31N 22°18' E 114°09'1 0.4
2014-Sep-19 23:33N 22°17' E 114°09'0 0.2
2014-Sep-19 22:33N 22°18' E 114°09'1 0.1
2014-Sep-19 13:26N 22°18' E 114°08'1 0.7
2014-Sep-19 11:34N 22°17' E 114°10'1 1.0
2014-Sep-19 10:09N 22°18' E 114°08'1 2.2
2014-Sep-19 09:32N 22°18' E 114°09'1 1.0
2014-Sep-19 08:33N 22°17' E 114°10'0 0.0
2014-Sep-19 05:33N 22°17' E 114°10'0 0.0
2014-Sep-19 02:33N 22°17' E 114°10'2 1.0
2014-Sep-19 01:05N 22°18' E 114°08'2 1.0
2014-Sep-18 23:34N 22°17' E 114°10'2 1.9
2014-Sep-18 22:33N 22°18' E 114°08'0 0.0
2014-Sep-18 13:24N 22°18' E 114°08'1 0.8
2014-Sep-18 11:33N 22°17' E 114°10'2 1.2
2014-Sep-18 10:09N 22°18' E 114°08'2 1.0
2014-Sep-18 08:33N 22°17' E 114°10'0 0.0
2014-Sep-18 05:33N 22°17' E 114°10'0 0.0
2014-Sep-18 02:33N 22°17' E 114°10'0 0.0
2014-Sep-17 23:33N 22°17' E 114°10'4 4.1
2014-Sep-17 22:32N 22°17' E 114°05'3 0.3
2014-Sep-17 13:24N 22°18' E 114°08'2 0.9
2014-Sep-17 11:33N 22°17' E 114°10'2 1.1
2014-Sep-17 10:10N 22°18' E 114°08'2 2.6
2014-Sep-17 09:33N 22°19' E 114°09'1 1.2
2014-Sep-17 08:33N 22°18' E 114°09'0 0.1
2014-Sep-17 05:30N 22°17' E 114°10'0 0.0
2014-Sep-17 02:33N 22°17' E 114°10'1 1.0
2014-Sep-17 01:06N 22°18' E 114°08'1 0.9
2014-Sep-16 23:33N 22°17' E 114°10'2 1.4
2014-Sep-16 22:28N 22°18' E 114°08'0 0.0
2014-Sep-16 13:24N 22°18' E 114°08'2 0.9
2014-Sep-16 11:33N 22°17' E 114°10'2 1.2
2014-Sep-16 10:09N 22°18' E 114°08'2 2.7
2014-Sep-16 09:31N 22°19' E 114°09'1 1.5
2014-Sep-16 08:33N 22°17' E 114°09'0 0.1
2014-Sep-16 05:33N 22°17' E 114°10'0 0.0
2014-Sep-16 02:32N 22°17' E 114°09'0 0.0
2014-Sep-16 01:33N 22°17' E 114°09'0 0.0
2014-Sep-16 00:18N 22°17' E 114°09'0 0.0
2014-Sep-15 23:29N 22°17' E 114°09'0 0.0
2014-Sep-15 22:32N 22°17' E 114°09'0 0.0
2014-Sep-15 21:31N 22°17' E 114°09'0 0.0
2014-Sep-15 20:31N 22°17' E 114°09'0 0.0
2014-Sep-15 19:33N 22°17' E 114°09'0 0.0
2014-Sep-15 18:32N 22°17' E 114°09'0 0.0
2014-Sep-15 17:33N 22°17' E 114°09'0 0.0
2014-Sep-15 16:33N 22°17' E 114°09'0 0.2
2014-Sep-15 15:33N 22°18' E 114°09'0 0.1
2014-Sep-15 14:33N 22°18' E 114°10'1 0.5
2014-Sep-15 13:21N 22°18' E 114°09'1 0.4
2014-Sep-15 11:32N 22°17' E 114°10'1 1.0
2014-Sep-15 10:10N 22°18' E 114°08'1 1.3
2014-Sep-15 09:30N 22°18' E 114°09'1 0.5
2014-Sep-15 08:25N 22°17' E 114°10'0 0.0
2014-Sep-15 05:28N 22°17' E 114°10'0 0.0
2014-Sep-15 02:33N 22°17' E 114°10'2 1.3
2014-Sep-15 01:08N 22°18' E 114°08'2 1.0
2014-Sep-14 23:31N 22°17' E 114°09'1 1.1
2014-Sep-14 22:28N 22°18' E 114°08'0 0.0
2014-Sep-14 12:30N 22°18' E 114°08'2 0.8
2014-Sep-14 10:33N 22°17' E 114°10'1 1.1
2014-Sep-14 09:10N 22°18' E 114°08'1 0.8
2014-Sep-14 07:26N 22°17' E 114°09'0 0.0
2014-Sep-14 06:29N 22°17' E 114°09'0 0.0
2014-Sep-14 05:32N 22°17' E 114°09'1 1.1
2014-Sep-14 04:10N 22°18' E 114°08'0 0.0
2014-Sep-14 02:32N 22°18' E 114°08'0 0.0
2014-Sep-13 13:23N 22°18' E 114°08'1 0.7
2014-Sep-13 11:31N 22°17' E 114°10'2 1.2
2014-Sep-13 10:10N 22°18' E 114°08'2 3.1
2014-Sep-13 09:32N 22°19' E 114°09'1 1.5
2014-Sep-13 08:33N 22°18' E 114°09'0 0.1
2014-Sep-13 05:34N 22°17' E 114°10'0 0.0
2014-Sep-13 02:33N 22°17' E 114°10'1 0.9
2014-Sep-13 01:07N 22°18' E 114°08'1 0.7
2014-Sep-12 23:33N 22°17' E 114°09'1 1.0
2014-Sep-12 22:28N 22°18' E 114°08'0 0.0
2014-Sep-12 13:24N 22°18' E 114°08'2 0.8
2014-Sep-12 11:33N 22°17' E 114°10'2 1.1
2014-Sep-12 10:10N 22°18' E 114°08'2 1.0
2014-Sep-12 08:32N 22°17' E 114°10'0 0.0
2014-Sep-12 05:33N 22°17' E 114°10'0 0.0
2014-Sep-12 02:33N 22°17' E 114°10'2 1.1
2014-Sep-12 01:06N 22°18' E 114°08'1 0.9
2014-Sep-11 23:33N 22°17' E 114°09'1 0.8
2014-Sep-11 22:19N 22°18' E 114°08'0 0.0
2014-Sep-11 13:25N 22°18' E 114°08'2 0.8
2014-Sep-11 11:32N 22°17' E 114°10'1 1.0
2014-Sep-11 10:10N 22°18' E 114°08'1 2.3
2014-Sep-11 09:33N 22°18' E 114°10'0 0.3
2014-Sep-11 08:33N 22°18' E 114°10'0 0.1
2014-Sep-11 05:30N 22°17' E 114°10'0 0.0
2014-Sep-11 02:33N 22°17' E 114°10'1 0.8
2014-Sep-11 01:09N 22°18' E 114°08'1 0.7
2014-Sep-10 23:33N 22°17' E 114°10'2 1.5
2014-Sep-10 22:33N 22°18' E 114°08'0 0.0
2014-Sep-10 13:25N 22°18' E 114°08'2 0.8
2014-Sep-10 11:33N 22°17' E 114°10'2 1.2
2014-Sep-10 10:09N 22°18' E 114°08'2 2.9
2014-Sep-10 09:33N 22°17' E 114°10'0 0.0
2014-Sep-10 02:33N 22°18' E 114°09'  
Track history (hours):
 
Tides and Currents Weather Stations Pressure Air Temp Water Temp Dewpoint Dewpoint Depression Visibility Wind Speed Wind Dir Waves Ship Positions

Sea Success

Last reported at 2014-Sep-20 01:31 UTC. Time now 2014-Sep-20 01:56 UTC.
Position N 22°18' E 114°09'.

Length 27 m.

Type: High speed craft. MMSI: 477995071.

Date/timePositionNaut miles runAvg speedWind from/ knotsBaromVisibWave heightAir tempDewpointWater temp
2014-Sep-20 01:31N 22°18' E 114°09'1 0.4
2014-Sep-19 23:33N 22°17' E 114°09'0 0.2
2014-Sep-19 22:33N 22°18' E 114°09'1 0.1
2014-Sep-19 13:26N 22°18' E 114°08'1 0.7
2014-Sep-19 11:34N 22°17' E 114°10'1 1.0
2014-Sep-19 10:09N 22°18' E 114°08'1 2.2
2014-Sep-19 09:32N 22°18' E 114°09'1 1.0
2014-Sep-19 08:33N 22°17' E 114°10'0 0.0
2014-Sep-19 05:33N 22°17' E 114°10'0 0.0
2014-Sep-19 02:33N 22°17' E 114°10'2 1.0
2014-Sep-19 01:05N 22°18' E 114°08'2 1.0
2014-Sep-18 23:34N 22°17' E 114°10'2 1.9
2014-Sep-18 22:33N 22°18' E 114°08'0 0.0
2014-Sep-18 13:24N 22°18' E 114°08'1 0.8
2014-Sep-18 11:33N 22°17' E 114°10'2 1.2
2014-Sep-18 10:09N 22°18' E 114°08'2 1.0
2014-Sep-18 08:33N 22°17' E 114°10'0 0.0
2014-Sep-18 05:33N 22°17' E 114°10'0 0.0
2014-Sep-18 02:33N 22°17' E 114°10'0 0.0
2014-Sep-17 23:33N 22°17' E 114°10'4 4.1
2014-Sep-17 22:32N 22°17' E 114°05'3 0.3
2014-Sep-17 13:24N 22°18' E 114°08'2 0.9
2014-Sep-17 11:33N 22°17' E 114°10'2 1.1
2014-Sep-17 10:10N 22°18' E 114°08'2 2.6
2014-Sep-17 09:33N 22°19' E 114°09'1 1.2
2014-Sep-17 08:33N 22°18' E 114°09'0 0.1
2014-Sep-17 05:30N 22°17' E 114°10'0 0.0
2014-Sep-17 02:33N 22°17' E 114°10'1 1.0
2014-Sep-17 01:06N 22°18' E 114°08'1 0.9
2014-Sep-16 23:33N 22°17' E 114°10'2 1.4
2014-Sep-16 22:28N 22°18' E 114°08'0 0.0
2014-Sep-16 13:24N 22°18' E 114°08'2 0.9
2014-Sep-16 11:33N 22°17' E 114°10'2 1.2
2014-Sep-16 10:09N 22°18' E 114°08'2 2.7
2014-Sep-16 09:31N 22°19' E 114°09'1 1.5
2014-Sep-16 08:33N 22°17' E 114°09'0 0.1
2014-Sep-16 05:33N 22°17' E 114°10'0 0.0
2014-Sep-16 02:32N 22°17' E 114°09'0 0.0
2014-Sep-16 01:33N 22°17' E 114°09'0 0.0
2014-Sep-16 00:18N 22°17' E 114°09'0 0.0
2014-Sep-15 23:29N 22°17' E 114°09'0 0.0
2014-Sep-15 22:32N 22°17' E 114°09'0 0.0
2014-Sep-15 21:31N 22°17' E 114°09'0 0.0
2014-Sep-15 20:31N 22°17' E 114°09'0 0.0
2014-Sep-15 19:33N 22°17' E 114°09'0 0.0
2014-Sep-15 18:32N 22°17' E 114°09'0 0.0
2014-Sep-15 17:33N 22°17' E 114°09'0 0.0
2014-Sep-15 16:33N 22°17' E 114°09'0 0.2
2014-Sep-15 15:33N 22°18' E 114°09'0 0.1
2014-Sep-15 14:33N 22°18' E 114°10'1 0.5
2014-Sep-15 13:21N 22°18' E 114°09'1 0.4
2014-Sep-15 11:32N 22°17' E 114°10'1 1.0
2014-Sep-15 10:10N 22°18' E 114°08'1 1.3
2014-Sep-15 09:30N 22°18' E 114°09'1 0.5
2014-Sep-15 08:25N 22°17' E 114°10'0 0.0
2014-Sep-15 05:28N 22°17' E 114°10'0 0.0
2014-Sep-15 02:33N 22°17' E 114°10'2 1.3
2014-Sep-15 01:08N 22°18' E 114°08'2 1.0
2014-Sep-14 23:31N 22°17' E 114°09'1 1.1
2014-Sep-14 22:28N 22°18' E 114°08'0 0.0
2014-Sep-14 12:30N 22°18' E 114°08'2 0.8
2014-Sep-14 10:33N 22°17' E 114°10'1 1.1
2014-Sep-14 09:10N 22°18' E 114°08'1 0.8
2014-Sep-14 07:26N 22°17' E 114°09'0 0.0
2014-Sep-14 06:29N 22°17' E 114°09'0 0.0
2014-Sep-14 05:32N 22°17' E 114°09'1 1.1
2014-Sep-14 04:10N 22°18' E 114°08'0 0.0
2014-Sep-14 02:32N 22°18' E 114°08'0 0.0
2014-Sep-13 13:23N 22°18' E 114°08'1 0.7
2014-Sep-13 11:31N 22°17' E 114°10'2 1.2
2014-Sep-13 10:10N 22°18' E 114°08'2 3.1
2014-Sep-13 09:32N 22°19' E 114°09'1 1.5
2014-Sep-13 08:33N 22°18' E 114°09'0 0.1
2014-Sep-13 05:34N 22°17' E 114°10'0 0.0
2014-Sep-13 02:33N 22°17' E 114°10'1 0.9
2014-Sep-13 01:07N 22°18' E 114°08'1 0.7
2014-Sep-12 23:33N 22°17' E 114°09'1 1.0
2014-Sep-12 22:28N 22°18' E 114°08'0 0.0
2014-Sep-12 13:24N 22°18' E 114°08'2 0.8
2014-Sep-12 11:33N 22°17' E 114°10'2 1.1
2014-Sep-12 10:10N 22°18' E 114°08'2 1.0
2014-Sep-12 08:32N 22°17' E 114°10'0 0.0
2014-Sep-12 05:33N 22°17' E 114°10'0 0.0
2014-Sep-12 02:33N 22°17' E 114°10'2 1.1
2014-Sep-12 01:06N 22°18' E 114°08'1 0.9
2014-Sep-11 23:33N 22°17' E 114°09'1 0.8
2014-Sep-11 22:19N 22°18' E 114°08'0 0.0
2014-Sep-11 13:25N 22°18' E 114°08'2 0.8
2014-Sep-11 11:32N 22°17' E 114°10'1 1.0
2014-Sep-11 10:10N 22°18' E 114°08'1 2.3
2014-Sep-11 09:33N 22°18' E 114°10'0 0.3
2014-Sep-11 08:33N 22°18' E 114°10'0 0.1
2014-Sep-11 05:30N 22°17' E 114°10'0 0.0
2014-Sep-11 02:33N 22°17' E 114°10'1 0.8
2014-Sep-11 01:09N 22°18' E 114°08'1 0.7
2014-Sep-10 23:33N 22°17' E 114°10'2 1.5
2014-Sep-10 22:33N 22°18' E 114°08'0 0.0
2014-Sep-10 13:25N 22°18' E 114°08'2 0.8
2014-Sep-10 11:33N 22°17' E 114°10'2 1.2
2014-Sep-10 10:09N 22°18' E 114°08'2 2.9
2014-Sep-10 09:33N 22°17' E 114°10'0 0.0
2014-Sep-10 02:33N 22°18' E 114°09'  

Dump ship's entire track history